Time;durP1;ratioP1;P1;durP2;ratioP2;P2;SDS_P1;SDS_P2;PMS_P1;PMS_P2;Temp;Humidity;BMP_temperature;BMP_pressure;BME280_temperature;BME280_humidity;BME280_pressure;Samples;Min_cycle;Max_cycle;Signal;HPM_P1;HPM_P2
2021/05/14 00:00:40;;;;;;;2.45;1.17;;;11.90;91.50;;;;;;5126058;27;27490;-60
2021/05/14 00:03:30;;;;;;;1.50;1.30;;;11.90;91.50;;;;;;5125329;27;27439;-61
2021/05/14 00:06:21;;;;;;;1.80;1.40;;;11.80;91.60;;;;;;5126372;27;27376;-60
2021/05/14 00:09:13;;;;;;;2.60;1.25;;;11.80;91.50;;;;;;5126307;27;27344;-60
2021/05/14 00:12:10;;;;;;;1.30;1.20;;;11.80;91.70;;;;;;5126361;27;27550;-61
2021/05/14 00:15:00;;;;;;;1.90;1.48;;;11.80;92.20;;;;;;5126471;27;27433;-60
2021/05/14 00:17:58;;;;;;;1.90;1.33;;;11.80;91.90;;;;;;5126361;27;27399;-61
2021/05/14 00:20:55;;;;;;;1.42;1.33;;;11.70;91.50;;;;;;5122917;27;27915;-60
2021/05/14 00:24:05;;;;;;;1.98;1.70;;;11.70;91.70;;;;;;5122709;27;27403;-60
2021/05/14 00:27:01;;;;;;;5.68;1.60;;;11.70;91.40;;;;;;5125363;27;27391;-61
2021/05/14 00:29:52;;;;;;;2.10;1.48;;;11.70;91.90;;;;;;5125960;27;27420;-61
2021/05/14 00:32:49;;;;;;;1.88;1.33;;;11.70;91.80;;;;;;5125190;27;27348;-61
2021/05/14 00:36:00;;;;;;;3.50;1.50;;;11.60;91.50;;;;;;5125908;27;27422;-61
2021/05/14 00:38:58;;;;;;;1.90;1.45;;;11.60;90.90;;;;;;5125483;27;27453;-61
2021/05/14 00:41:55;;;;;;;1.52;1.30;;;11.60;90.90;;;;;;5125854;27;27386;-61
2021/05/14 00:44:54;;;;;;;1.48;1.20;;;11.60;91.30;;;;;;5122466;27;27332;-61
2021/05/14 00:48:04;;;;;;;1.30;1.20;;;11.50;91.20;;;;;;5125913;27;27466;-61
2021/05/14 00:51:09;;;;;;;2.00;1.40;;;11.50;90.80;;;;;;5124821;27;27324;-61
2021/05/14 00:54:02;;;;;;;1.45;1.20;;;11.50;90.80;;;;;;5125203;27;27357;-61
2021/05/14 00:57:08;;;;;;;2.70;1.40;;;11.40;91.10;;;;;;5125492;27;27825;-62
2021/05/14 01:00:35;;;;;;;1.55;1.25;;;11.40;91.20;;;;;;5125459;27;27426;-58
2021/05/14 01:03:31;;;;;;;2.22;1.25;;;11.40;91.10;;;;;;5125324;27;27423;-59
2021/05/14 01:06:22;;;;;;;1.90;1.50;;;11.40;91.30;;;;;;5125704;27;27374;-61
2021/05/14 01:09:12;;;;;;;3.95;1.33;;;11.30;91.10;;;;;;5122288;27;27360;-61
2021/05/14 01:12:03;;;;;;;2.35;1.45;;;11.30;90.90;;;;;;5125259;27;27477;-60
2021/05/14 01:14:54;;;;;;;2.08;1.40;;;11.30;91.00;;;;;;5125589;27;27328;-61
2021/05/14 01:17:48;;;;;;;2.00;1.60;;;11.30;91.10;;;;;;5125483;27;27462;-61
2021/05/14 01:20:46;;;;;;;2.25;1.42;;;11.20;91.00;;;;;;5095399;27;27868;-60
2021/05/14 01:23:43;;;;;;;4.45;1.33;;;11.20;91.00;;;;;;5125032;27;27428;-60
2021/05/14 01:26:36;;;;;;;1.92;1.48;;;11.20;90.60;;;;;;5125159;27;27374;-60
2021/05/14 01:29:27;;;;;;;1.67;1.45;;;11.10;91.00;;;;;;5125477;27;27458;-61
2021/05/14 01:32:20;;;;;;;2.25;1.38;;;11.10;90.70;;;;;;5121598;27;27446;-60
2021/05/14 01:35:49;;;;;;;1.65;1.30;;;11.10;91.20;;;;;;5124043;27;27394;-60
2021/05/14 01:38:40;;;;;;;1.83;1.58;;;11.10;90.70;;;;;;5124963;27;27486;-60
2021/05/14 01:41:33;;;;;;;2.60;1.40;;;11.00;90.90;;;;;;5121530;27;27311;-60
2021/05/14 01:44:24;;;;;;;2.33;1.33;;;11.00;91.00;;;;;;5094784;27;27462;-60
2021/05/14 01:47:29;;;;;;;1.58;1.33;;;11.00;91.00;;;;;;5109623;27;27520;-60
2021/05/14 01:50:20;;;;;;;2.10;1.23;;;11.00;90.70;;;;;;5108981;27;27435;-60
2021/05/14 01:53:25;;;;;;;2.30;1.27;;;11.00;91.20;;;;;;5124979;27;27379;-60
2021/05/14 01:56:15;;;;;;;1.50;1.23;;;10.90;90.90;;;;;;5123277;27;27349;-60
2021/05/14 01:59:06;;;;;;;2.10;1.45;;;10.90;90.60;;;;;;5124540;27;27590;-60
2021/05/14 02:02:03;;;;;;;2.78;1.17;;;10.90;90.80;;;;;;5100662;28;27729;-59
2021/05/14 02:05:01;;;;;;;1.63;1.27;;;10.80;90.60;;;;;;5103763;28;27412;-59
2021/05/14 02:07:58;;;;;;;1.65;1.15;;;10.80;90.40;;;;;;5074928;28;27525;-60
2021/05/14 02:10:49;;;;;;;1.65;1.25;;;10.80;90.50;;;;;;5104063;28;27364;-59
2021/05/14 02:13:46;;;;;;;1.45;1.00;;;10.70;90.50;;;;;;5104093;28;27477;-59
2021/05/14 02:16:43;;;;;;;1.38;1.23;;;10.70;90.40;;;;;;5103544;28;27400;-59
2021/05/14 02:19:49;;;;;;;1.63;1.10;;;10.60;90.40;;;;;;5103754;28;27402;-59
2021/05/14 02:22:40;;;;;;;1.48;1.00;;;10.60;90.70;;;;;;5103163;28;27458;-59
2021/05/14 02:25:45;;;;;;;2.45;1.10;;;10.60;90.80;;;;;;5085401;28;27631;-58
2021/05/14 02:28:37;;;;;;;1.38;1.27;;;10.60;90.60;;;;;;5103670;28;27481;-59
2021/05/14 02:31:34;;;;;;;3.72;1.20;;;10.50;90.70;;;;;;5103547;28;27480;-59
2021/05/14 02:34:26;;;;;;;2.42;1.13;;;10.50;90.10;;;;;;5075318;28;27504;-58
2021/05/14 02:37:21;;;;;;;1.73;1.25;;;10.50;90.60;;;;;;5103610;28;27386;-59
2021/05/14 02:41:11;;;;;;;2.25;1.20;;;10.40;90.50;;;;;;5103167;28;27359;-59
2021/05/14 02:44:21;;;;;;;0.90;0.80;;;10.40;90.50;;;;;;5100973;28;27497;-59
2021/05/14 02:47:18;;;;;;;3.63;1.10;;;10.30;90.40;;;;;;5103404;28;27348;-59
2021/05/14 02:50:10;;;;;;;1.40;1.30;;;10.30;90.60;;;;;;5103544;28;27465;-58
2021/05/14 02:53:24;;;;;;;2.78;1.35;;;10.30;90.60;;;;;;5099356;28;27328;-59
2021/05/14 02:56:18;;;;;;;1.48;1.20;;;10.20;90.30;;;;;;5105696;28;27382;-59
2021/05/14 02:59:18;;;;;;;3.10;1.40;;;10.20;90.40;;;;;;5091890;28;27412;-59
2021/05/14 03:02:09;;;;;;;1.45;1.13;;;10.20;90.60;;;;;;5116623;27;27486;-60
2021/05/14 03:05:01;;;;;;;3.88;0.88;;;10.20;90.70;;;;;;5127512;27;27316;-59
2021/05/14 03:07:58;;;;;;;2.05;1.25;;;10.10;90.60;;;;;;5127385;27;28023;-59
2021/05/14 03:10:51;;;;;;;0.95;0.90;;;10.10;90.50;;;;;;5127561;27;27423;-59
2021/05/14 03:14:32;;;;;;;1.10;1.00;;;10.10;90.40;;;;;;5123945;27;27442;-59
2021/05/14 03:17:33;;;;;;;1.35;1.17;;;10.10;90.30;;;;;;5098395;27;27535;-59
2021/05/14 03:20:38;;;;;;;7.32;1.73;;;10.00;90.90;;;;;;5127187;27;27344;-59
2021/05/14 03:23:35;;;;;;;3.03;1.33;;;10.00;91.00;;;;;;5127135;27;27552;-59
2021/05/14 03:26:42;;;;;;;1.80;1.48;;;10.00;90.50;;;;;;5127144;27;27407;-58
2021/05/14 03:29:39;;;;;;;2.30;1.60;;;10.00;90.30;;;;;;5126683;27;27482;-58
2021/05/14 03:32:35;;;;;;;2.10;1.65;;;9.90;90.30;;;;;;5108440;27;27397;-59
2021/05/14 03:35:26;;;;;;;1.55;1.40;;;9.90;90.50;;;;;;5111705;27;27665;-58
2021/05/14 03:38:11;;;;;;;1.80;1.08;;;9.90;90.40;;;;;;5126909;27;27399;-58
2021/05/14 03:41:04;;;;;;;1.13;0.90;;;9.90;90.40;;;;;;5126667;27;27332;-59
2021/05/14 03:43:55;;;;;;;1.58;1.10;;;9.80;90.30;;;;;;5126694;27;27391;-58
2021/05/14 03:46:45;;;;;;;1.30;1.00;;;9.80;90.60;;;;;;5126587;27;27485;-59
2021/05/14 03:49:38;;;;;;;1.38;1.27;;;9.80;90.10;;;;;;5126914;27;27373;-58
2021/05/14 03:52:32;;;;;;;1.77;1.42;;;9.80;90.40;;;;;;5126605;27;27399;-59
2021/05/14 03:55:23;;;;;;;1.15;0.98;;;9.70;90.60;;;;;;5126954;27;27387;-60
2021/05/14 03:58:15;;;;;;;4.00;1.23;;;9.70;90.40;;;;;;5127036;27;27418;-61
2021/05/14 04:01:06;;;;;;;0.90;0.80;;;9.70;90.10;;;;;;5126267;27;27378;-59
2021/05/14 04:04:03;;;;;;;2.78;0.90;;;9.70;90.50;;;;;;5126769;27;27428;-59
2021/05/14 04:07:09;;;;;;;2.88;1.30;;;9.60;90.40;;;;;;5125791;27;27330;-59
2021/05/14 04:16:40;;;;;;;6.45;1.30;;;9.60;90.30;;;;;;5072815;27;28082;-60
2021/05/14 04:19:36;;;;;;;2.30;1.40;;;9.60;90.40;;;;;;5107712;27;27462;-58
2021/05/14 04:22:28;;;;;;;1.42;1.23;;;9.60;90.80;;;;;;5122735;27;27461;-60
2021/05/14 04:25:25;;;;;;;1.40;1.30;;;9.60;90.40;;;;;;5107208;27;27419;-60
2021/05/14 04:28:17;;;;;;;2.67;0.95;;;9.60;90.50;;;;;;5126261;27;27485;-60
2021/05/14 04:31:08;;;;;;;1.20;1.02;;;9.50;90.60;;;;;;5107592;27;27422;-60
2021/05/14 04:33:59;;;;;;;1.17;0.98;;;9.50;90.60;;;;;;5126179;27;27321;-60
2021/05/14 04:36:50;;;;;;;1.08;0.82;;;9.50;90.90;;;;;;5125989;27;27503;-60
2021/05/14 04:39:42;;;;;;;1.08;0.95;;;9.50;90.60;;;;;;5107162;27;27301;-60
2021/05/14 04:42:39;;;;;;;2.63;1.45;;;9.50;90.60;;;;;;5126093;27;27481;-59
2021/05/14 04:45:31;;;;;;;1.77;1.10;;;9.50;90.80;;;;;;5122072;27;27340;-60
2021/05/14 04:48:28;;;;;;;3.55;1.20;;;9.50;90.70;;;;;;5125642;27;27467;-60
2021/05/14 04:51:20;;;;;;;1.77;1.30;;;9.50;91.00;;;;;;5125590;27;27328;-60
2021/05/14 04:54:26;;;;;;;1.30;1.20;;;9.40;91.10;;;;;;5125410;27;27922;-60
2021/05/14 04:57:24;;;;;;;1.73;1.25;;;9.50;91.10;;;;;;5110005;27;27439;-60
2021/05/14 05:00:32;;;;;;;2.58;1.35;;;9.50;91.00;;;;;;5125450;27;27374;-60
2021/05/14 05:03:24;;;;;;;3.60;1.60;;;9.50;91.10;;;;;;5103159;28;27573;-60
2021/05/14 05:06:35;;;;;;;2.97;1.52;;;9.50;90.90;;;;;;5104710;28;27387;-59
2021/05/14 05:09:26;;;;;;;1.75;1.33;;;9.50;91.00;;;;;;5101303;28;27484;-60
2021/05/14 05:12:23;;;;;;;4.15;1.80;;;9.50;91.20;;;;;;5104742;28;27382;-60
2021/05/14 05:15:52;;;;;;;1.95;1.30;;;9.60;91.20;;;;;;5101449;28;27422;-60
2021/05/14 05:18:55;;;;;;;2.22;1.70;;;9.60;91.20;;;;;;5103361;27;27376;-60
2021/05/14 05:21:46;;;;;;;4.32;1.90;;;9.60;91.20;;;;;;5104758;28;27453;-60
2021/05/14 05:24:37;;;;;;;3.40;2.25;;;9.60;91.40;;;;;;5104463;28;27406;-60
2021/05/14 05:27:29;;;;;;;3.03;2.05;;;9.70;91.60;;;;;;5104389;28;27405;-60
2021/05/14 05:30:59;;;;;;;3.97;2.70;;;9.70;91.10;;;;;;5103394;28;27514;-60
2021/05/14 05:33:49;;;;;;;5.43;2.88;;;9.80;91.40;;;;;;5100517;28;27355;-60
2021/05/14 05:36:42;;;;;;;4.13;2.60;;;9.90;91.50;;;;;;5104393;28;27407;-60
2021/05/14 05:39:37;;;;;;;2.45;2.00;;;10.00;91.70;;;;;;5104477;28;27374;-59
2021/05/14 05:42:50;;;;;;;3.08;2.22;;;10.20;91.90;;;;;;5100065;28;27405;-60
2021/05/14 05:46:09;;;;;;;4.32;1.55;;;10.30;91.80;;;;;;5103393;28;27587;-60
2021/05/14 05:49:00;;;;;;;2.40;1.75;;;10.50;91.90;;;;;;5104719;28;27450;-60
2021/05/14 05:52:13;;;;;;;2.22;1.65;;;10.60;91.10;;;;;;5105070;28;27331;-60
2021/05/14 05:55:48;;;;;;;2.83;1.92;;;10.70;90.60;;;;;;5101686;28;27456;-61
2021/05/14 05:58:46;;;;;;;1.85;1.52;;;10.80;88.00;;;;;;5102657;28;27610;-60
2021/05/14 06:01:38;;;;;;;2.35;1.48;;;10.90;87.60;;;;;;5107207;27;27122;-60
2021/05/14 06:04:29;;;;;;;2.45;1.60;;;11.10;90.10;;;;;;5125217;27;27362;-60
2021/05/14 06:07:26;;;;;;;3.05;1.77;;;11.30;88.40;;;;;;5125473;27;27926;-61
2021/05/14 06:10:36;;;;;;;2.35;1.30;;;11.60;88.00;;;;;;5122058;27;27404;-60
2021/05/14 06:13:27;;;;;;;1.70;1.42;;;12.00;89.60;;;;;;5125152;27;27344;-60
2021/05/14 06:16:21;;;;;;;2.17;1.67;;;12.40;86.10;;;;;;5125356;27;27376;-60
2021/05/14 06:19:49;;;;;;;2.65;1.60;;;12.80;84.70;;;;;;5067478;27;27917;-61
2021/05/14 06:22:31;;;;;;;2.08;1.20;;;13.10;83.90;;;;;;5121942;27;27370;-61
2021/05/14 06:25:22;;;;;;;4.50;1.50;;;13.40;83.80;;;;;;5125190;27;27600;-62
2021/05/14 06:28:22;;;;;;;2.15;1.67;;;13.70;82.30;;;;;;5125876;27;27317;-62
2021/05/14 06:31:12;;;;;;;1.27;1.13;;;14.00;82.50;;;;;;5128044;27;27848;-62
2021/05/14 06:34:26;;;;;;;7.70;2.33;;;14.20;83.30;;;;;;5128785;27;27469;-62
2021/05/14 06:37:18;;;;;;;2.03;1.73;;;14.50;81.80;;;;;;5128161;27;27328;-62
2021/05/14 06:40:33;;;;;;;1.77;1.30;;;14.80;81.40;;;;;;5109797;27;27398;-63
2021/05/14 06:43:42;;;;;;;1.25;0.90;;;15.10;81.50;;;;;;5127097;27;27336;-63
2021/05/14 06:46:32;;;;;;;3.38;1.30;;;15.40;80.60;;;;;;5128248;27;27389;-62
2021/05/14 06:49:28;;;;;;;2.22;1.20;;;15.60;80.20;;;;;;5128652;27;27392;-63
2021/05/14 06:52:43;;;;;;;1.90;1.20;;;15.80;79.00;;;;;;5124670;27;27477;-63
2021/05/14 06:55:54;;;;;;;1.98;0.93;;;16.00;79.80;;;;;;5128465;27;27358;-62
2021/05/14 06:58:54;;;;;;;0.90;0.90;;;16.20;80.40;;;;;;5125085;27;27393;-63
2021/05/14 07:01:45;;;;;;;3.63;1.33;;;16.50;81.10;;;;;;5127840;27;27387;-63
2021/05/14 07:04:36;;;;;;;1.85;1.25;;;16.70;80.40;;;;;;5127979;27;27462;-63
2021/05/14 07:07:29;;;;;;;1.27;1.05;;;16.90;79.90;;;;;;5128367;27;27382;-63
2021/05/14 07:10:23;;;;;;;2.58;1.00;;;17.20;79.00;;;;;;5128434;27;27416;-63
2021/05/14 07:13:17;;;;;;;3.33;0.90;;;17.50;79.00;;;;;;5128512;27;27386;-64
2021/05/14 07:16:08;;;;;;;1.83;0.75;;;17.70;79.50;;;;;;5098825;27;27379;-64
2021/05/14 07:19:15;;;;;;;1.98;0.93;;;18.00;80.10;;;;;;5127825;27;27946;-64
2021/05/14 07:22:06;;;;;;;1.70;0.88;;;18.30;76.70;;;;;;5128464;27;27470;-64
2021/05/14 07:24:59;;;;;;;1.20;0.70;;;18.60;74.10;;;;;;5128046;27;27341;-64
2021/05/14 07:27:58;;;;;;;1.83;0.85;;;18.80;74.20;;;;;;5098717;27;27416;-64
2021/05/14 07:30:57;;;;;;;1.05;0.68;;;19.00;73.00;;;;;;5099495;27;27380;-65
2021/05/14 07:34:10;;;;;;;1.77;0.77;;;19.30;75.20;;;;;;5124010;27;27536;-65
2021/05/14 07:37:16;;;;;;;1.63;0.90;;;19.50;71.10;;;;;;5127632;27;27416;-65
2021/05/14 07:40:13;;;;;;;2.13;1.15;;;19.80;71.50;;;;;;5126847;27;27458;-65
2021/05/14 07:43:13;;;;;;;1.17;0.77;;;20.10;72.00;;;;;;5127659;27;27945;-65
2021/05/14 07:46:27;;;;;;;0.93;0.57;;;20.40;69.30;;;;;;5126568;27;27640;-65
2021/05/14 07:49:32;;;;;;;1.38;0.80;;;20.60;66.80;;;;;;5127813;27;27573;-65
2021/05/14 07:52:45;;;;;;;1.90;0.63;;;20.80;71.00;;;;;;5127256;27;27578;-66
2021/05/14 07:55:51;;;;;;;1.48;0.90;;;21.00;65.90;;;;;;5091863;27;27377;-65
2021/05/14 07:58:42;;;;;;;1.52;0.60;;;21.30;65.80;;;;;;5126613;27;27478;-65
2021/05/14 08:01:47;;;;;;;0.50;0.50;;;21.50;62.80;;;;;;5126872;27;27428;-66
2021/05/14 08:04:39;;;;;;;2.22;0.77;;;21.70;65.40;;;;;;5110649;27;27454;-66
2021/05/14 08:07:30;;;;;;;4.07;1.00;;;21.90;62.10;;;;;;5108814;27;27404;-66
2021/05/14 08:10:26;;;;;;;3.75;0.80;;;22.10;63.90;;;;;;5127029;27;27395;-66
2021/05/14 08:13:26;;;;;;;1.02;0.57;;;22.20;64.80;;;;;;5126876;27;27318;-66
2021/05/14 08:16:17;;;;;;;1.30;0.70;;;22.40;60.30;;;;;;5124183;27;27402;-66
2021/05/14 08:19:11;;;;;;;0.88;0.52;;;22.60;60.60;;;;;;5127696;27;27465;-67
2021/05/14 08:22:22;;;;;;;1.52;0.90;;;22.90;58.70;;;;;;5127480;27;27374;-67
2021/05/14 08:25:31;;;;;;;2.97;0.90;;;23.10;59.70;;;;;;5127324;27;27400;-65
2021/05/14 08:28:26;;;;;;;2.03;0.70;;;23.40;59.30;;;;;;5127341;27;27310;-65
2021/05/14 08:31:39;;;;;;;1.52;0.70;;;23.50;58.80;;;;;;5126834;27;27465;-66
2021/05/14 08:34:29;;;;;;;2.65;0.93;;;23.70;61.10;;;;;;5126947;27;27339;-66
2021/05/14 08:37:42;;;;;;;1.13;0.70;;;24.00;58.20;;;;;;5123624;27;27467;-66
2021/05/14 08:40:58;;;;;;;1.60;1.00;;;24.10;59.70;;;;;;5108543;27;27342;-65
2021/05/14 08:43:53;;;;;;;1.73;0.82;;;24.30;56.40;;;;;;5126544;27;27465;-66
2021/05/14 08:46:44;;;;;;;2.03;1.00;;;24.30;55.40;;;;;;5126642;27;27406;-67
2021/05/14 08:49:35;;;;;;;1.00;0.63;;;24.40;55.40;;;;;;5127045;27;27348;-66
2021/05/14 08:52:26;;;;;;;2.22;0.80;;;24.60;57.30;;;;;;5110733;27;27435;-66
2021/05/14 08:55:24;;;;;;;0.90;0.40;;;24.70;56.20;;;;;;5126939;27;27366;-66
2021/05/14 08:58:20;;;;;;;1.42;0.70;;;24.90;55.20;;;;;;5126302;27;27419;-66
2021/05/14 09:01:10;;;;;;;1.63;0.70;;;25.00;55.00;;;;;;5125713;27;27321;-67
2021/05/14 09:03:55;;;;;;;1.85;0.65;;;25.30;54.00;;;;;;5126654;27;27367;-66
2021/05/14 09:07:13;;;;;;;0.82;0.63;;;25.40;54.00;;;;;;5126069;27;27247;-65
2021/05/14 09:10:32;;;;;;;4.13;0.82;;;25.60;52.30;;;;;;5126340;27;27541;-65
2021/05/14 09:13:34;;;;;;;2.55;0.60;;;25.40;52.20;;;;;;5123543;27;27447;-64
2021/05/14 09:17:00;;;;;;;0.55;0.35;;;25.30;53.30;;;;;;5126470;27;27415;-65
2021/05/14 09:20:11;;;;;;;1.65;0.70;;;25.50;57.70;;;;;;5125658;27;27364;-65
2021/05/14 09:23:24;;;;;;;1.40;0.60;;;25.00;55.20;;;;;;5125285;27;27490;-65
2021/05/14 09:26:13;;;;;;;1.33;0.90;;;24.40;57.00;;;;;;5126797;27;27394;-65
2021/05/14 09:29:04;;;;;;;2.13;0.70;;;23.80;57.20;;;;;;5126381;27;27462;-65
2021/05/14 09:31:55;;;;;;;1.85;0.75;;;23.30;57.10;;;;;;5126264;27;27320;-65
2021/05/14 09:34:55;;;;;;;3.28;0.55;;;22.90;58.80;;;;;;5107302;27;27416;-64
2021/05/14 09:37:52;;;;;;;1.67;0.75;;;23.10;59.30;;;;;;5125688;27;27418;-64
2021/05/14 09:41:05;;;;;;;1.25;0.50;;;23.50;58.50;;;;;;5125877;27;27332;-64
2021/05/14 09:44:08;;;;;;;1.00;0.43;;;23.90;58.00;;;;;;5125747;27;27458;-65
2021/05/14 09:47:02;;;;;;;0.60;0.40;;;23.90;57.30;;;;;;5107164;27;27402;-65
2021/05/14 09:49:53;;;;;;;0.85;0.82;;;23.50;57.60;;;;;;5095920;27;26955;-65
2021/05/14 09:53:00;;;;;;;1.60;0.40;;;23.10;58.10;;;;;;5122110;27;27407;-65
2021/05/14 09:56:14;;;;;;;0.40;0.40;;;22.80;60.00;;;;;;5106697;27;27481;-65
2021/05/14 09:59:49;;;;;;;0.70;0.50;;;22.80;65.50;;;;;;5123626;27;27408;-65
2021/05/14 10:02:46;;;;;;;1.17;0.50;;;23.10;60.20;;;;;;5124649;27;27454;-65
2021/05/14 10:05:40;;;;;;;1.17;0.52;;;23.40;62.50;;;;;;5082257;28;27433;-66
2021/05/14 10:08:33;;;;;;;2.28;0.77;;;23.40;59.40;;;;;;5051580;28;27917;-66
2021/05/14 10:11:33;;;;;;;1.17;0.60;;;23.30;58.70;;;;;;5064867;28;27519;-65
2021/05/14 10:14:39;;;;;;;1.48;0.47;;;23.50;59.60;;;;;;5066303;28;27370;-66
2021/05/14 10:17:30;;;;;;;3.28;0.50;;;23.90;60.20;;;;;;5067868;28;27518;-66
2021/05/14 10:20:38;;;;;;;2.25;0.50;;;24.40;60.70;;;;;;5082579;28;27522;-67
2021/05/14 10:23:50;;;;;;;1.95;0.43;;;24.70;58.40;;;;;;5082639;28;27540;-68
2021/05/14 10:26:42;;;;;;;1.95;0.55;;;24.90;58.10;;;;;;5081520;28;27633;-68
2021/05/14 10:29:37;;;;;;;2.92;0.75;;;25.10;60.70;;;;;;5082203;28;27496;-68
2021/05/14 10:32:46;;;;;;;3.15;0.70;;;25.40;61.80;;;;;;5051177;28;27958;-69
2021/05/14 10:36:14;;;;;;;2.30;0.60;;;25.60;58.70;;;;;;5094914;27;27367;-69
2021/05/14 10:39:15;;;;;;;0.85;0.40;;;25.90;61.00;;;;;;5092175;27;27374;-70
2021/05/14 10:42:13;;;;;;;1.25;0.30;;;25.80;58.80;;;;;;5125025;27;27411;-69
2021/05/14 10:45:27;;;;;;;0.73;0.30;;;25.50;56.30;;;;;;5124534;27;27321;-68
2021/05/14 10:48:33;;;;;;;2.40;0.43;;;25.40;56.80;;;;;;5074850;27;27479;-69
2021/05/14 10:51:59;;;;;;;8.40;2.72;;;25.60;58.70;;;;;;5109530;27;27400;-63
2021/05/14 10:54:48;;;;;;;3.58;0.98;;;25.50;65.10;;;;;;5124381;27;27573;-64
2021/05/14 10:57:48;;;;;;;3.50;0.85;;;25.10;60.80;;;;;;5121355;27;27305;-63
2021/05/14 11:00:56;;;;;;;2.30;0.77;;;24.70;58.50;;;;;;5124756;27;27359;-63
2021/05/14 11:03:53;;;;;;;3.33;0.75;;;24.20;56.90;;;;;;5080608;28;27343;-64
2021/05/14 11:06:48;;;;;;;2.50;0.88;;;23.80;58.10;;;;;;5083749;28;27407;-63
2021/05/14 11:09:39;;;;;;;2.65;0.85;;;23.60;59.10;;;;;;5083474;28;27875;-63
2021/05/14 11:12:38;;;;;;;3.70;0.60;;;23.80;63.30;;;;;;5083446;28;27516;-63
2021/05/14 11:15:45;;;;;;;1.25;0.60;;;24.10;64.70;;;;;;5082766;28;27514;-63
2021/05/14 11:18:36;;;;;;;1.48;0.50;;;24.50;64.70;;;;;;5086839;28;27402;-63
2021/05/14 11:21:45;;;;;;;2.10;0.65;;;24.40;61.50;;;;;;5086039;28;27396;-63
2021/05/14 11:24:45;;;;;;;2.55;0.60;;;24.40;58.10;;;;;;5083646;28;27414;-64
2021/05/14 11:27:50;;;;;;;2.42;0.68;;;24.20;59.80;;;;;;5086800;28;27429;-64
2021/05/14 11:30:53;;;;;;;2.03;0.63;;;24.00;63.00;;;;;;5087004;28;26939;-63
2021/05/14 11:33:59;;;;;;;4.47;0.70;;;23.80;63.00;;;;;;5086866;28;27348;-63
2021/05/14 11:36:52;;;;;;;1.73;0.80;;;23.60;61.40;;;;;;5086858;28;27320;-64
2021/05/14 11:39:49;;;;;;;3.90;0.60;;;23.40;59.80;;;;;;5086662;28;27464;-64
2021/05/14 11:42:46;;;;;;;1.95;0.60;;;23.20;59.30;;;;;;5086553;28;27361;-63
2021/05/14 11:45:52;;;;;;;1.70;0.40;;;23.10;59.40;;;;;;5086277;28;27444;-63
2021/05/14 11:49:05;;;;;;;0.45;0.30;;;23.40;62.30;;;;;;5085953;28;27410;-63
2021/05/14 11:52:39;;;;;;;2.30;0.60;;;23.70;63.80;;;;;;5085571;28;27370;-64
2021/05/14 11:55:37;;;;;;;1.15;0.50;;;24.00;61.40;;;;;;5086568;28;27389;-63
2021/05/14 11:58:33;;;;;;;1.40;0.40;;;24.30;62.20;;;;;;5086251;28;27432;-64
2021/05/14 12:02:03;;;;;;;4.30;1.23;;;24.50;62.60;;;;;;5096849;27;27387;-63
2021/05/14 12:05:21;;;;;;;16.80;3.05;;;24.70;66.00;;;;;;5127077;27;27423;-63
2021/05/14 12:08:17;;;;;;;5.38;1.52;;;24.80;65.20;;;;;;5111873;27;27340;-63
2021/05/14 12:11:20;;;;;;;5.25;1.88;;;24.90;63.00;;;;;;5127022;27;27373;-63
2021/05/14 12:14:21;;;;;;;5.10;0.82;;;24.90;58.50;;;;;;5097621;27;27413;-63
2021/05/14 12:17:26;;;;;;;5.45;0.80;;;24.80;59.80;;;;;;5126807;27;27400;-63
2021/05/14 12:20:37;;;;;;;2.28;0.70;;;24.70;58.70;;;;;;5111459;27;27477;-64
2021/05/14 12:23:34;;;;;;;1.48;0.70;;;24.50;64.30;;;;;;5126606;27;27833;-64
2021/05/14 12:26:28;;;;;;;3.03;0.88;;;24.30;58.60;;;;;;5126669;27;27438;-64
2021/05/14 12:29:59;;;;;;;2.30;0.82;;;24.00;59.20;;;;;;5127058;27;27428;-65
2021/05/14 12:33:24;;;;;;;3.28;0.73;;;23.70;62.70;;;;;;5126301;27;27452;-64
2021/05/14 12:36:31;;;;;;;3.42;0.70;;;23.40;63.70;;;;;;5126410;27;27817;-65
2021/05/14 12:39:29;;;;;;;1.20;0.45;;;23.20;65.10;;;;;;5126652;27;27364;-64
2021/05/14 12:42:34;;;;;;;2.25;0.80;;;23.20;66.50;;;;;;5126601;27;27423;-64
2021/05/14 12:45:29;;;;;;;2.00;0.60;;;23.20;65.10;;;;;;5125805;27;27408;-65
2021/05/14 12:48:23;;;;;;;4.05;0.60;;;23.20;67.10;;;;;;5096769;27;27659;-65
2021/05/14 12:51:28;;;;;;;2.47;0.65;;;23.20;66.20;;;;;;5126366;27;27578;-65
2021/05/14 12:54:22;;;;;;;3.03;0.70;;;23.20;63.90;;;;;;5123354;27;27410;-65
2021/05/14 12:57:30;;;;;;;3.67;0.63;;;23.20;59.50;;;;;;5126627;27;27371;-65
2021/05/14 13:00:38;;;;;;;2.65;0.63;;;23.30;64.70;;;;;;5114501;27;27460;-65
2021/05/14 13:03:47;;;;;;;2.40;0.65;;;23.50;71.40;;;;;;5125267;27;27355;-66
2021/05/14 13:06:37;;;;;;;2.20;0.60;;;23.80;67.20;;;;;;5125783;27;27442;-64
2021/05/14 13:09:49;;;;;;;0.75;0.43;;;24.00;64.40;;;;;;5123037;27;27467;-64
2021/05/14 13:12:46;;;;;;;3.63;0.68;;;24.20;67.60;;;;;;5125743;27;27459;-65
2021/05/14 13:15:38;;;;;;;2.00;0.40;;;24.40;68.80;;;;;;5126059;27;27470;-65
2021/05/14 13:18:30;;;;;;;3.67;0.73;;;24.60;69.80;;;;;;5125987;27;27461;-65
2021/05/14 13:21:22;;;;;;;4.05;0.70;;;24.60;64.70;;;;;;5125957;27;27381;-66
2021/05/14 13:24:47;;;;;;;9.38;3.28;;;24.60;66.60;;;;;;5125776;27;27461;-65
2021/05/14 13:27:55;;;;;;;6.88;1.70;;;24.60;80.10;;;;;;5125644;27;27482;-64
2021/05/14 13:30:49;;;;;;;5.38;1.27;;;24.40;79.80;;;;;;5124931;27;27426;-65
2021/05/14 13:33:40;;;;;;;6.00;1.88;;;24.20;73.20;;;;;;5125887;27;27320;-66
2021/05/14 13:36:31;;;;;;;3.28;0.85;;;24.20;78.10;;;;;;5093021;27;27895;-66
2021/05/14 13:39:23;;;;;;;4.97;1.48;;;24.10;73.10;;;;;;5125130;27;27368;-67
2021/05/14 13:42:29;;;;;;;3.38;0.88;;;23.90;70.00;;;;;;5107155;27;27321;-66
2021/05/14 13:45:20;;;;;;;3.17;1.13;;;23.70;70.20;;;;;;5125266;27;27386;-65
2021/05/14 13:48:16;;;;;;;2.65;1.20;;;23.60;71.40;;;;;;5125443;27;27841;-65
2021/05/14 13:51:29;;;;;;;2.95;1.10;;;23.40;71.40;;;;;;5125685;27;27518;-66
2021/05/14 13:54:26;;;;;;;4.45;0.95;;;23.30;71.30;;;;;;5125412;27;27481;-61
2021/05/14 13:57:16;;;;;;;7.03;1.00;;;23.20;66.10;;;;;;5083041;27;27701;-64
2021/05/14 14:00:45;;;;;;;6.50;1.10;;;23.10;66.90;;;;;;5125498;27;27395;-62
2021/05/14 14:03:52;;;;;;;4.78;0.80;;;23.00;64.50;;;;;;5124078;27;27431;-62
2021/05/14 14:06:44;;;;;;;1.58;0.60;;;22.90;66.20;;;;;;5108591;27;27490;-64
2021/05/14 14:09:28;;;;;;;3.13;1.10;;;22.90;65.90;;;;;;5125234;27;26979;-70
2021/05/14 14:12:25;;;;;;;2.50;0.85;;;22.90;68.40;;;;;;5125062;27;27472;-74
2021/05/14 14:15:16;;;;;;;3.35;2.10;;;23.10;73.50;;;;;;5121813;27;27403;-68
2021/05/14 14:18:24;;;;;;;3.97;1.08;;;23.20;74.10;;;;;;5125403;27;27427;-71
2021/05/14 14:21:15;;;;;;;3.72;0.88;;;23.40;69.70;;;;;;5109389;27;27513;-74
2021/05/14 14:24:29;;;;;;;1.77;0.40;;;23.30;55.60;;;;;;5125027;27;27362;-74
2021/05/14 14:27:28;;;;;;;4.97;1.00;;;23.30;56.70;;;;;;5078443;27;27455;-74
2021/05/14 14:30:31;;;;;;;0.95;0.73;;;23.40;57.70;;;;;;5125556;27;27759;-72
2021/05/14 14:33:18;;;;;;;2.40;0.68;;;23.40;57.50;;;;;;5085787;27;27372;-74
2021/05/14 14:36:10;;;;;;;1.95;0.52;;;23.40;58.60;;;;;;5109360;27;27365;-73
2021/05/14 14:39:07;;;;;;;1.08;0.55;;;23.40;59.20;;;;;;5124696;27;27415;-73
2021/05/14 14:41:57;;;;;;;1.55;0.70;;;23.30;59.60;;;;;;5125277;27;27382;-74
2021/05/14 14:45:10;;;;;;;0.73;0.38;;;23.30;60.00;;;;;;5124803;27;27411;-74
2021/05/14 14:48:21;;;;;;;3.50;0.77;;;23.30;58.10;;;;;;5089792;27;27368;-74
2021/05/14 14:51:26;;;;;;;5.00;0.70;;;23.20;59.20;;;;;;5126282;27;27374;-74
2021/05/14 14:54:22;;;;;;;2.45;0.65;;;23.10;57.70;;;;;;5128373;27;27336;-75
2021/05/14 14:57:20;;;;;;;2.97;0.90;;;23.10;57.60;;;;;;5125258;27;27383;-74
2021/05/14 15:00:34;;;;;;;2.33;0.50;;;23.00;59.30;;;;;;5124704;27;27406;-73
2021/05/14 15:03:29;;;;;;;1.92;0.63;;;22.90;59.60;;;;;;5127284;27;27471;-74
2021/05/14 15:06:20;;;;;;;2.15;0.50;;;23.00;58.10;;;;;;5109612;27;27416;-74
2021/05/14 15:09:25;;;;;;;2.10;0.50;;;23.10;60.20;;;;;;5125137;27;26872;-75
2021/05/14 15:12:32;;;;;;;1.88;0.55;;;23.20;62.60;;;;;;5127993;27;27907;-75
2021/05/14 15:15:28;;;;;;;0.95;0.43;;;23.20;65.00;;;;;;5127854;27;27387;-73
2021/05/14 15:18:14;;;;;;;1.55;0.52;;;23.30;63.70;;;;;;5112517;27;27524;-70
2021/05/14 15:21:05;;;;;;;1.33;0.45;;;23.30;64.00;;;;;;5128003;27;27454;-72
2021/05/14 15:24:11;;;;;;;1.08;0.50;;;23.30;64.00;;;;;;5128253;27;27909;-72
2021/05/14 15:27:02;;;;;;;0.50;0.50;;;23.30;62.00;;;;;;5127810;27;27398;-73
2021/05/14 15:29:54;;;;;;;1.63;0.45;;;23.20;60.30;;;;;;5128149;27;27474;-72
2021/05/14 15:32:52;;;;;;;2.40;0.52;;;23.20;59.40;;;;;;5127827;27;27489;-73
2021/05/14 15:35:42;;;;;;;1.05;0.35;;;23.00;60.50;;;;;;5127690;27;27411;-71
2021/05/14 15:38:40;;;;;;;1.75;0.57;;;22.90;60.90;;;;;;5124407;27;27392;-73
2021/05/14 15:41:30;;;;;;;1.10;0.55;;;22.80;61.80;;;;;;5127695;27;27415;-73
2021/05/14 15:44:21;;;;;;;1.80;0.47;;;22.60;61.80;;;;;;5108973;27;27345;-72